^^
Station Historical Data
 
Daily Summary for June 17, 2018 Units:  English    Metric   Both
« Previous Day
Next Day »
Daily Weekly Monthly Yearly Custom
  Current: High: Low: Average:
Temperature: 92.5 °F TemperatureF °F 64.9 °F 75.4 °F
Dew Point: 77.1 °F DewpointF °F 64.4 °F 70.4 °F
Humidity: 61% Humidity% 60% 86%
Wind Speed: 4.0mph WindSpeedMPHmph 0.0mph 1.8mph
Wind Gust: 2.7mph WindSpeedGustMPHmph - -
WindSSW - - SSW
Pressure: 29.82 in PressureIn in 29.82 in -
Precipitation: 0.01 in      
Historical Graphs
 
 
Tabular Data for June 17, 2018
Time Temperature Dew Point Pressure Wind Wind Speed Wind Gust Humidity Rainfall Rate (Hourly) solar Conditions
TemperatureF °F DewpointF °F PressureIn in Calm     Humidity% HourlyPrecipIn in SolarRadiationWatts/m^2 W/m2 Conditions
00:04 67.6 °F 67.1 °F 29.91 in East 2.0 mph 0.4 mph 98% 0.00 in 0.00 W/m2 RA
00:09 67.6 °F 67.1 °F 29.91 in East 2.3 mph 0.4 mph 98% 0.00 in 0.00 W/m2 RA
00:14 67.6 °F 67.1 °F 29.91 in Calm     98% 0.00 in 0.00 W/m2 OVC
00:19 67.6 °F 67.1 °F 29.91 in Calm     98% 0.00 in 0.00 W/m2 OVC
00:24 67.5 °F 66.9 °F 29.92 in Calm     98% 0.00 in 0.00 W/m2 OVC
00:29 67.3 °F 66.7 °F 29.92 in Calm     98% 0.00 in 0.00 W/m2 OVC
00:34 67.3 °F 66.7 °F 29.91 in Calm     98% 0.00 in 0.00 W/m2 OVC
00:39 67.3 °F 66.7 °F 29.91 in Calm     98% 0.00 in 0.00 W/m2 OVC
00:44 67.1 °F 66.5 °F 29.91 in Calm   0.2 mph 98% 0.00 in 0.00 W/m2 OVC
00:49 67.1 °F 66.5 °F 29.92 in Calm   0.2 mph 98% 0.00 in 0.00 W/m2 OVC
00:54 67.1 °F 66.5 °F 29.92 in Calm   0.7 mph 98% 0.00 in 0.00 W/m2 OVC
00:59 67.1 °F 66.5 °F 29.92 in Calm     98% 0.00 in 0.00 W/m2 OVC
01:04 66.9 °F 66.3 °F 29.92 in Calm     98% 0.00 in 0.00 W/m2 OVC
01:09 66.9 °F 66.3 °F 29.92 in ESE 2.0 mph 0.2 mph 98% 0.00 in 0.00 W/m2 OVC
01:14 66.9 °F 66.3 °F 29.92 in Calm   0.2 mph 98% 0.00 in 0.00 W/m2 OVC
01:19 66.6 °F 66.0 °F 29.92 in West 2.3 mph 0.7 mph 98% 0.00 in 0.00 W/m2 OVC
01:24 66.6 °F 66.0 °F 29.92 in SE 0.9 mph   98% 0.00 in 0.00 W/m2 OVC
01:29 66.6 °F 66.0 °F 29.93 in Calm     98% 0.00 in 0.00 W/m2 OVC
01:34 66.6 °F 66.0 °F 29.93 in Calm     98% 0.00 in 0.00 W/m2 OVC
01:39 66.6 °F 66.0 °F 29.92 in Calm     98% 0.00 in 0.00 W/m2 OVC
01:44 66.6 °F 66.0 °F 29.92 in Calm     98% 0.00 in 0.00 W/m2 OVC
01:49 66.6 °F 66.0 °F 29.92 in Calm     98% 0.00 in 0.00 W/m2 OVC
01:54 66.4 °F 65.8 °F 29.92 in Calm     98% 0.00 in 0.00 W/m2 OVC
01:59 66.4 °F 65.8 °F 29.91 in Calm     98% 0.00 in 0.00 W/m2 OVC
02:04 66.0 °F 65.4 °F 29.91 in Calm     98% 0.00 in 0.00 W/m2 -RA
02:09 66.0 °F 65.4 °F 29.91 in Calm     98% 0.00 in 0.00 W/m2 -RA
02:14 66.0 °F 65.4 °F 29.91 in Calm     98% 0.00 in 0.00 W/m2 -RA
02:19 66.0 °F 65.4 °F 29.92 in Calm     98% 0.00 in 0.00 W/m2 -RA
02:24 65.8 °F 65.3 °F 29.92 in Calm     98% 0.00 in 0.00 W/m2 -RA
02:29 65.8 °F 65.3 °F 29.92 in Calm     98% 0.00 in 0.00 W/m2 -RA
02:34 65.8 °F 65.3 °F 29.92 in Calm     98% 0.00 in 0.00 W/m2 -RA
02:39 65.8 °F 65.3 °F 29.93 in Calm     98% 0.00 in 0.00 W/m2 -RA
02:44 65.8 °F 65.3 °F 29.93 in Calm     98% 0.00 in 0.00 W/m2 -RA
02:49 65.8 °F 65.3 °F 29.93 in Calm     98% 0.00 in 0.00 W/m2 -RA
02:54 65.8 °F 65.3 °F 29.93 in Calm     98% 0.00 in 0.00 W/m2 -RA
02:59 65.8 °F 65.3 °F 29.93 in Calm     98% 0.00 in 0.00 W/m2 -RA
03:04 65.8 °F 65.3 °F 29.93 in Calm     98% 0.00 in 0.00 W/m2 -RA
03:09 65.8 °F 65.3 °F 29.93 in Calm     98% 0.00 in 0.00 W/m2 -RA
03:14 65.8 °F 65.3 °F 29.93 in Calm     98% 0.00 in 0.00 W/m2 -RA
03:19 65.8 °F 65.3 °F 29.93 in Calm     98% 0.00 in 0.00 W/m2 -RA
03:24 65.8 °F 65.3 °F 29.93 in Calm     98% 0.00 in 0.00 W/m2 -RA
03:29 65.8 °F 65.3 °F 29.93 in Calm     98% 0.00 in 0.00 W/m2 -RA
03:34 65.8 °F 65.3 °F 29.93 in Calm     98% 0.00 in 0.00 W/m2 -RA
03:39 65.8 °F 65.3 °F 29.93 in Calm     98% 0.00 in 0.00 W/m2 -RA
03:44 65.7 °F 65.1 °F 29.93 in Calm     98% 0.00 in 0.00 W/m2 -RA
03:49 65.7 °F 65.1 °F 29.93 in Calm     98% 0.00 in 0.00 W/m2 -RA
03:54 65.7 °F 65.1 °F 29.93 in Calm     98% 0.00 in 0.00 W/m2 -RA
03:59 65.5 °F 64.9 °F 29.93 in Calm     98% 0.00 in 0.00 W/m2 -RA
04:04 65.5 °F 64.9 °F 29.92 in Calm     98% 0.00 in 0.00 W/m2 FEW
04:09 65.5 °F 64.9 °F 29.92 in Calm     98% 0.00 in 0.00 W/m2 FEW
04:14 65.5 °F 64.9 °F 29.92 in Calm     98% 0.00 in 0.00 W/m2 FEW
04:19 65.1 °F 64.5 °F 29.91 in Calm     98% 0.01 in 0.00 W/m2 RA
04:24 65.1 °F 64.5 °F 29.91 in Calm     98% 0.01 in 0.00 W/m2 RA
04:29 65.1 °F 64.5 °F 29.90 in Calm     98% 0.01 in 0.00 W/m2 FEW
04:34 65.1 °F 64.5 °F 29.90 in Calm     98% 0.01 in 0.00 W/m2 -RA
04:39 64.9 °F 64.4 °F 29.90 in Calm     98% 0.01 in 0.00 W/m2 -RA
04:44 64.9 °F 64.4 °F 29.89 in Calm     98% 0.01 in 0.00 W/m2 -RA
04:49 64.9 °F 64.4 °F 29.89 in Calm     98% 0.01 in 0.00 W/m2 -RA
04:54 64.9 °F 64.4 °F 29.89 in WSW 1.2 mph 0.4 mph 98% 0.01 in 0.00 W/m2 -RA
04:59 64.9 °F 64.4 °F 29.89 in Calm     98% 0.01 in 0.00 W/m2 -RA
05:04 64.9 °F 64.4 °F 29.89 in Calm     98% 0.01 in 0.00 W/m2 OVC
05:09 64.9 °F 64.4 °F 29.89 in Calm   0.2 mph 98% 0.01 in 0.00 W/m2 OVC
05:14 64.9 °F 64.4 °F 29.90 in Calm     98% 0.01 in 0.00 W/m2 OVC
05:19 64.9 °F 64.4 °F 29.90 in Calm     98% 0.00 in 141.10 W/m2 OVC
05:24 64.9 °F 64.4 °F 29.89 in Calm     98% 0.00 in 179.50 W/m2 OVC
05:29 65.1 °F 64.5 °F 29.91 in Calm     98% 0.00 in 179.50 W/m2 OVC
05:34 65.1 °F 64.5 °F 29.91 in Calm     98% 0.00 in 210.80 W/m2 OVC
05:39 65.5 °F 64.9 °F 29.92 in Calm     98% 0.00 in 217.80 W/m2 OVC
05:44 65.5 °F 64.9 °F 29.92 in Calm     98% 0.00 in 230.00 W/m2 OVC
05:49 65.5 °F 64.9 °F 29.92 in Calm     98% 0.00 in 236.00 W/m2 OVC
05:54 65.5 °F 64.9 °F 29.93 in Calm     98% 0.00 in 245.10 W/m2 OVC
05:59 65.5 °F 64.9 °F 29.92 in Calm     98% 0.00 in 256.20 W/m2 OVC
06:04 65.5 °F 64.9 °F 29.92 in Calm     98% 0.00 in 264.30 W/m2 BKN
06:09 65.5 °F 64.9 °F 29.93 in Calm     98% 0.00 in 272.40 W/m2 BKN
06:14 65.5 °F 64.9 °F 29.93 in Calm     98% 0.00 in 280.50 W/m2 BKN
06:19 65.7 °F 65.1 °F 29.93 in Calm     98% 0.00 in 285.50 W/m2 OVC
06:24 65.8 °F 65.3 °F 29.93 in Calm     98% 0.00 in 282.50 W/m2 OVC
06:29 65.8 °F 65.3 °F 29.93 in Calm     98% 0.00 in 286.50 W/m2 OVC
06:34 65.8 °F 65.3 °F 29.94 in Calm     98% 0.00 in 294.60 W/m2 OVC
06:39 66.0 °F 65.4 °F 29.94 in Calm     98% 0.00 in 302.70 W/m2 OVC
06:44 66.0 °F 65.4 °F 29.95 in Calm     98% 0.00 in 303.70 W/m2 OVC
06:49 66.6 °F 66.0 °F 29.95 in Calm     98% 0.00 in 301.70 W/m2 OVC
06:54 66.6 °F 66.0 °F 29.95 in Calm     98% 0.00 in 302.70 W/m2 OVC
06:59 66.6 °F 66.0 °F 29.95 in Calm     98% 0.00 in 304.70 W/m2 OVC
07:04 66.9 °F 66.3 °F 29.95 in Calm     98% 0.00 in 307.70 W/m2 FEW
07:09 67.3 °F 66.7 °F 29.96 in Calm     98% 0.00 in 309.80 W/m2 FEW
07:14 67.5 °F 66.9 °F 29.96 in Calm     98% 0.00 in 315.80 W/m2 FEW
07:19 67.8 °F 67.2 °F 29.96 in Calm     98% 0.00 in 322.90 W/m2 FEW
07:24 68.0 °F 67.4 °F 29.97 in Calm     98% 0.00 in 328.90 W/m2 FEW
07:29 68.2 °F 67.6 °F 29.96 in Calm     98% 0.00 in 330.00 W/m2 FEW
07:34 68.4 °F 67.8 °F 29.97 in SW 1.2 mph 0.2 mph 98% 0.00 in 332.00 W/m2 FEW
07:39 68.5 °F 68.0 °F 29.96 in Calm   0.2 mph 98% 0.00 in 335.00 W/m2 FEW
07:44 68.9 °F 68.3 °F 29.97 in Calm     98% 0.00 in 341.10 W/m2 FEW
07:49 69.1 °F 68.5 °F 29.97 in Calm     98% 0.00 in 346.10 W/m2 FEW
07:54 69.4 °F 68.9 °F 29.97 in Calm     98% 0.00 in 347.10 W/m2 FEW
07:59 69.8 °F 69.2 °F 29.96 in Calm     98% 0.00 in 348.10 W/m2 FEW
08:04 69.8 °F 69.2 °F 29.96 in Calm     98% 0.00 in 349.20 W/m2 CLR
08:09 70.0 °F 69.4 °F 29.96 in Calm     98% 0.00 in 354.20 W/m2 CLR
08:14 70.0 °F 69.4 °F 29.97 in Calm     98% 0.00 in 360.30 W/m2 CLR
08:19 70.5 °F 69.9 °F 29.97 in Calm     98% 0.00 in 362.30 W/m2 CLR
08:24 70.5 °F 69.9 °F 29.97 in Calm     98% 0.00 in 361.30 W/m2 CLR
08:29 70.9 °F 70.3 °F 29.97 in Calm     98% 0.00 in 358.20 W/m2 CLR
08:34 71.1 °F 70.5 °F 29.96 in Calm     98% 0.00 in 356.20 W/m2 CLR
08:39 71.4 °F 70.8 °F 29.96 in Calm     98% 0.00 in 359.30 W/m2 CLR
08:44 71.4 °F 70.8 °F 29.96 in Calm     98% 0.00 in 367.30 W/m2 CLR
08:49 72.0 °F 71.4 °F 29.96 in Calm     98% 0.00 in 375.40 W/m2 CLR
08:54 72.1 °F 71.5 °F 29.97 in Calm     98% 0.00 in 382.50 W/m2 CLR
08:59 72.3 °F 71.7 °F 29.97 in Calm     98% 0.00 in 318.00 W/m2 CLR
09:04 72.5 °F 71.9 °F 29.97 in Calm     98% 0.00 in 391.60 W/m2 CLR
09:09 72.9 °F 72.3 °F 29.96 in Calm     98% 0.00 in 364.30 W/m2 CLR
09:14 73.0 °F 72.4 °F 29.97 in Calm     98% 0.00 in 423.90 W/m2 CLR
09:19 73.4 °F 72.8 °F 29.97 in SSW 0.9 mph   98% 0.00 in 470.30 W/m2 FEW
09:24 73.8 °F 73.2 °F 29.97 in Calm   0.2 mph 98% 0.00 in 428.00 W/m2 FEW
09:29 74.7 °F 74.1 °F 29.97 in Calm     98% 0.00 in 762.20 W/m2 FEW
09:34 74.8 °F 74.2 °F 29.96 in Calm   0.2 mph 98% 0.00 in 790.50 W/m2 FEW
09:39 75.6 °F 75.0 °F 29.96 in Calm     98% 0.00 in 806.70 W/m2 FEW
09:44 75.9 °F 74.7 °F 29.97 in Calm   0.2 mph 96% 0.00 in 819.80 W/m2 FEW
09:49 76.5 °F 75.9 °F 29.95 in Calm     98% 0.00 in 819.80 W/m2 FEW
09:54 76.8 °F 75.6 °F 29.96 in Calm   0.2 mph 96% 0.00 in 824.90 W/m2 FEW
09:59 77.4 °F 75.8 °F 29.96 in Calm     95% 0.00 in 824.90 W/m2 FEW
10:04 77.4 °F 75.8 °F 29.96 in South 1.2 mph 0.9 mph 95% 0.00 in 830.90 W/m2 CLR
10:09 77.2 °F 74.3 °F 29.96 in SSE 3.5 mph 0.9 mph 91% 0.00 in 820.80 W/m2 CLR
10:14 77.2 °F 75.0 °F 29.95 in SSW 1.2 mph 0.2 mph 93% 0.00 in 811.70 W/m2 CLR
10:19 78.1 °F 74.9 °F 29.95 in SSW 2.3 mph 0.7 mph 90% 0.00 in 802.60 W/m2 CLR
10:24 78.4 °F 74.6 °F 29.96 in West 2.0 mph 0.9 mph 88% 0.00 in 818.80 W/m2 CLR
10:29 78.8 °F 74.9 °F 29.95 in West 3.5 mph 1.6 mph 88% 0.00 in 847.10 W/m2 CLR
10:34 79.0 °F 74.1 °F 29.95 in SW 1.2 mph 0.9 mph 85% 0.00 in 856.20 W/m2 CLR
10:39 80.1 °F 75.1 °F 29.95 in SSE 1.2 mph 0.2 mph 85% 0.00 in 861.20 W/m2 CLR
10:44 80.1 °F 74.4 °F 29.95 in Calm     83% 0.00 in 864.30 W/m2 CLR
10:49 81.0 °F 74.6 °F 29.95 in NW 4.0 mph 1.6 mph 81% 0.00 in 877.40 W/m2 CLR
10:54 81.0 °F 74.6 °F 29.93 in SSW 2.3 mph 1.8 mph 81% 0.00 in 879.40 W/m2 CLR
10:59 81.9 °F 74.3 °F 29.93 in West 3.5 mph 1.3 mph 78% 0.00 in 887.50 W/m2 CLR
11:04 82.8 °F 75.2 °F 29.93 in Calm   0.2 mph 78% 0.00 in 886.50 W/m2 CLR
11:09 82.8 °F 74.0 °F 29.93 in SW 3.5 mph 2.7 mph 75% 0.00 in 894.00 W/m2 CLR
11:14 82.6 °F 74.2 °F 29.93 in North 2.3 mph 1.3 mph 76% 0.00 in 889.50 W/m2 CLR
11:19 82.8 °F 74.0 °F 29.93 in SW 3.5 mph 1.8 mph 75% 0.00 in 889.50 W/m2 CLR
11:24 82.9 °F 74.2 °F 29.93 in WNW 3.5 mph 2.7 mph 75% 0.00 in 889.50 W/m2 CLR
11:29 83.1 °F 74.4 °F 29.93 in WSW 3.5 mph 3.4 mph 75% 0.00 in 889.50 W/m2 CLR
11:34 83.8 °F 74.3 °F 29.92 in East 4.6 mph 2.9 mph 73% 0.00 in 887.50 W/m2 CLR
11:39 83.8 °F 73.4 °F 29.92 in SE 3.5 mph 2.0 mph 71% 0.00 in 892.50 W/m2 CLR
11:44 84.6 °F 74.1 °F 29.93 in West 2.9 mph 1.6 mph 71% 0.00 in 897.60 W/m2 CLR
11:49 85.5 °F 74.6 °F 29.93 in WSW 2.3 mph 1.6 mph 70% 0.00 in 893.50 W/m2 CLR
11:54 85.6 °F 74.7 °F 29.92 in ESE 6.0 mph 2.9 mph 70% 0.00 in 899.60 W/m2 CLR
11:59 86.2 °F 74.8 °F 29.92 in West 2.3 mph 2.0 mph 69% 0.00 in 899.60 W/m2 CLR
12:04 86.4 °F 75.4 °F 29.92 in ESE 3.5 mph 1.3 mph 70% 0.00 in 900.60 W/m2 FEW
12:09 87.8 °F 74.6 °F 29.92 in NW 5.8 mph 3.6 mph 65% 0.00 in 1093.00 W/m2 FEW
12:14 87.3 °F 75.8 °F 29.92 in ESE 3.5 mph 2.5 mph 69% 0.00 in 897.60 W/m2 FEW
12:19 87.8 °F 75.9 °F 29.91 in SSW 2.9 mph 2.2 mph 68% 0.00 in 896.60 W/m2 FEW
12:24 87.8 °F 76.4 °F 29.91 in SSE 4.6 mph 2.2 mph 69% 0.00 in 1129.00 W/m2 FEW
12:29 88.2 °F 74.9 °F 29.91 in West 4.0 mph 2.7 mph 65% 0.00 in 896.60 W/m2 FEW
12:34 88.2 °F 74.9 °F 29.91 in ESE 10.4 mph 4.5 mph 65% 0.00 in 897.60 W/m2 FEW
12:39 88.0 °F 75.2 °F 29.91 in West 8.1 mph 3.6 mph 66% 0.00 in 893.50 W/m2 FEW
12:44 88.0 °F 75.2 °F 29.90 in SSW 3.5 mph 2.9 mph 66% 0.00 in 894.60 W/m2 FEW
12:49 88.5 °F 75.7 °F 29.91 in NNE 5.8 mph 2.9 mph 66% 0.00 in 898.60 W/m2 FEW
12:54 88.5 °F 75.7 °F 29.91 in West 4.6 mph 2.9 mph 66% 0.00 in 898.60 W/m2 FEW
12:59 89.8 °F 76.9 °F 29.91 in West 6.9 mph 4.2 mph 66% 0.00 in 893.50 W/m2 FEW
13:04 89.1 °F 76.2 °F 29.90 in ESE 3.5 mph 4.5 mph 66% 0.00 in 897.60 W/m2 CLR
13:09 89.6 °F 76.3 °F 29.90 in NNE 1.2 mph 2.5 mph 65% 0.00 in 899.60 W/m2 CLR
13:14 89.2 °F 77.3 °F 29.90 in NNE 10.4 mph 3.8 mph 68% 0.00 in 900.60 W/m2 CLR
13:19 88.5 °F 76.6 °F 29.90 in WNW 3.5 mph 3.1 mph 68% 0.00 in 884.40 W/m2 CLR
13:24 90.1 °F 77.2 °F 29.90 in ESE 10.9 mph 4.0 mph 66% 0.00 in 882.40 W/m2 CLR
13:29 90.0 °F 78.4 °F 29.90 in SSW 3.5 mph 3.8 mph 69% 0.00 in 897.60 W/m2 CLR
13:34 90.3 °F 77.0 °F 29.89 in SW 5.8 mph 3.6 mph 65% 0.00 in 893.50 W/m2 CLR
13:39 90.1 °F 78.1 °F 29.89 in SW 3.5 mph 3.1 mph 68% 0.00 in 896.60 W/m2 CLR
13:44 91.0 °F 77.6 °F 29.88 in SSW 6.0 mph 3.4 mph 65% 0.00 in 896.60 W/m2 CLR
13:49 90.3 °F 77.4 °F 29.88 in NNE 4.6 mph 2.9 mph 66% 0.00 in 896.60 W/m2 CLR
13:54 90.5 °F 77.6 °F 29.89 in West 4.6 mph 1.8 mph 66% 0.00 in 897.60 W/m2 CLR
13:59 91.4 °F 78.0 °F 29.89 in WNW 6.9 mph 4.5 mph 65% 0.00 in 844.10 W/m2 CLR
14:04 91.4 °F 78.0 °F 29.89 in WSW 3.5 mph 5.1 mph 65% 0.00 in 895.60 W/m2 FEW
14:09 91.8 °F 77.4 °F 29.88 in WSW 8.1 mph 2.9 mph 63% 0.00 in 897.60 W/m2 FEW
14:14 91.0 °F 76.7 °F 29.88 in SSE 4.0 mph 3.1 mph 63% 0.00 in 897.60 W/m2 FEW
14:19 90.0 °F 78.0 °F 29.87 in WSW 3.5 mph 3.4 mph 68% 0.00 in 898.60 W/m2 FEW
14:24 91.0 °F 77.6 °F 29.86 in West 6.9 mph 3.1 mph 65% 0.00 in 866.30 W/m2 FEW
14:29 92.5 °F 78.0 °F 29.86 in South 8.1 mph 4.0 mph 63% 0.00 in 0.00 W/m2 FEW
14:34 90.0 °F 76.6 °F 29.87 in SSE 4.9 mph 4.5 mph 65% 0.00 in 897.60 W/m2 FEW
14:39 90.7 °F 76.3 °F 29.86 in West 5.8 mph 5.1 mph 63% 0.00 in 837.00 W/m2 FEW
14:44 91.4 °F 77.0 °F 29.86 in SE 4.0 mph 3.6 mph 63% 0.00 in 887.50 W/m2 FEW
14:49 91.0 °F 76.7 °F 29.86 in SW 6.9 mph 3.8 mph 63% 0.00 in 894.60 W/m2 FEW
14:54 91.0 °F 76.7 °F 29.86 in SE 3.5 mph 3.4 mph 63% 0.00 in 850.10 W/m2 FEW
14:59 91.9 °F 76.6 °F 29.86 in WSW 8.1 mph 3.6 mph 61% 0.00 in 883.40 W/m2 FEW
15:04 91.9 °F 76.6 °F 29.85 in NNE 4.9 mph 4.5 mph 61% 0.00 in 892.50 W/m2 CLR
15:09 90.9 °F 76.5 °F 29.85 in West 4.0 mph 3.1 mph 63% 0.00 in 875.40 W/m2 CLR
15:14 91.6 °F 78.1 °F 29.85 in NNW 3.5 mph 2.9 mph 65% 0.00 in 868.30 W/m2 CLR
15:19 91.6 °F 77.2 °F 29.86 in SE 4.0 mph 2.5 mph 63% 0.00 in 807.70 W/m2 CLR
15:24 91.0 °F 76.7 °F 29.85 in SW 6.9 mph 4.0 mph 63% 0.00 in 807.70 W/m2 CLR
15:29 90.0 °F 77.1 °F 29.86 in West 3.5 mph 3.4 mph 66% 0.00 in 868.30 W/m2 CLR
15:34 91.0 °F 76.7 °F 29.85 in West 6.9 mph 4.0 mph 63% 0.00 in 767.30 W/m2 CLR
15:39 92.5 °F 77.1 °F 29.86 in NW 8.1 mph 3.4 mph 61% 0.00 in 840.00 W/m2 CLR
15:44 92.1 °F 76.7 °F 29.85 in SSW 4.6 mph 3.4 mph 61% 0.00 in 891.50 W/m2 CLR
15:49 91.9 °F 76.6 °F 29.85 in SW 3.5 mph 2.5 mph 61% 0.00 in 890.50 W/m2 CLR
15:54 91.8 °F 77.4 °F 29.85 in SSW 4.6 mph 2.5 mph 63% 0.00 in 889.50 W/m2 CLR
15:59 90.9 °F 77.5 °F 29.85 in WNW 3.5 mph 1.8 mph 65% 0.00 in 885.50 W/m2 CLR
16:04 90.3 °F 77.0 °F 29.85 in West 3.5 mph 2.2 mph 65% 0.00 in 718.80 W/m2 CLR
16:09 89.8 °F 76.4 °F 29.85 in SW 3.5 mph 4.2 mph 65% 0.00 in 718.80 W/m2 CLR
16:14 90.0 °F 76.6 °F 29.85 in WSW 2.3 mph 1.6 mph 65% 0.00 in 718.80 W/m2 CLR
16:19 91.0 °F 76.7 °F 29.84 in ESE 3.5 mph 2.7 mph 63% 0.00 in 714.80 W/m2 CLR
16:24 91.4 °F 76.1 °F 29.84 in West 6.0 mph 3.8 mph 61% 0.00 in 809.70 W/m2 CLR
16:29 92.1 °F 76.7 °F 29.84 in South 3.5 mph 3.8 mph 61% 0.00 in 865.30 W/m2 CLR
16:34 92.7 °F 78.2 °F 29.83 in West 5.8 mph 3.8 mph 63% 0.00 in 0.00 W/m2 CLR
16:39 92.8 °F 77.4 °F 29.84 in WSW 3.5 mph 2.7 mph 61% 0.00 in 881.40 W/m2 CLR
16:44 92.5 °F 76.6 °F 29.82 in SW 3.5 mph 4.2 mph 60% 0.00 in 880.40 W/m2 CLR
16:49 92.5 °F 77.1 °F 29.82 in SSW 4.0 mph 2.7 mph 61% 0.00 in 649.10 W/m2 CLR
Juneau County Weather
Compliments of Weather Underground - 5.25 mb